GABS

Senou Airport

Senou, Mali
METAR GABS 190500Z 36010KT CAVOK 26/11 Q1013 NOSIG
Observed Flight Rules
Nov-19 @ 05:00 UTC (49 minutes ago) Visual Flight Rules
Wind Visibility Clouds
360° at 10 knots 10,000+ meters
  • Clear skies
Temperatures Readings
Current 26°C / 79°F
Dewpoint 11°C / 52°F
Humidity 39%
Altimeter 29.91" Hg
Pressure 1013 hPa
Elevation 381
METAR GABS 190500Z 36010KT CAVOK 26/11 Q1013 NOSIG
Observed Flight Rules
Nov-19 @ 05:00 UTC
(49 minutes ago)
VFR
Wind Visibility
360° at 10 knots 10,000+ meters
Clouds
  • Clear skies
Temperature Dewpoint
26°C / 79°F 11°C / 52°F
Humidity Altimeter Pressure
39% 29.91" Hg 1013 hPa